Time;durP1;ratioP1;P1;durP2;ratioP2;P2;SDS_P1;SDS_P2;PMS_P1;PMS_P2;Temp;Humidity;BMP_temperature;BMP_pressure;BME280_temperature;BME280_humidity;BME280_pressure;Samples;Min_cycle;Max_cycle;Signal;HPM_P1;HPM_P2
2023/08/22 00:01:47;;;;;;;;;;;;;;;18.67;83.50;102020.59;5027029;28;20142;-59
2023/08/22 00:04:12;;;;;;;;;;;;;;;18.72;83.21;102005.69;5026761;28;19920;-59
2023/08/22 00:06:38;;;;;;;;;;;;;;;18.81;82.43;102008.38;5025718;28;20090;-59
2023/08/22 00:09:03;;;;;;;;;;;;;;;18.85;82.78;102011.97;5027231;28;19904;-59
2023/08/22 00:11:28;;;;;;;;;;;;;;;18.91;81.67;102018.19;5026350;28;19905;-59
2023/08/22 00:13:54;;;;;;;;;;;;;;;18.92;80.29;102014.69;5026437;28;20154;-59
2023/08/22 00:16:20;;;;;;;;;;;;;;;18.77;80.88;102011.91;5020270;28;19905;-59
2023/08/22 00:18:45;;;;;;;;;;;;;;;18.66;81.21;102001.25;5015988;28;20163;-59
2023/08/22 00:21:10;;;;;;;;;;;;;;;18.63;82.08;102013.53;5022009;28;19965;-59
2023/08/22 00:23:35;;;;;;;;;;;;;;;18.62;82.48;102009.13;5025278;28;19956;-59
2023/08/22 00:26:01;;;;;;;;;;;;;;;18.64;83.22;102007.38;5019718;28;19913;-59
2023/08/22 00:28:26;;;;;;;;;;;;;;;18.70;83.49;102008.31;5024177;28;19910;-59
2023/08/22 00:30:52;;;;;;;;;;;;;;;18.72;83.48;102010.97;5015339;28;19906;-59
2023/08/22 00:33:17;;;;;;;;;;;;;;;18.71;83.75;102010.09;5021209;28;20202;-59
2023/08/22 00:35:42;;;;;;;;;;;;;;;18.70;83.92;102012.72;5021704;28;19912;-59
2023/08/22 00:38:07;;;;;;;;;;;;;;;18.68;84.35;102009.16;5023859;28;20059;-59
2023/08/22 00:40:33;;;;;;;;;;;;;;;18.65;84.17;101998.59;5023727;28;19985;-59
2023/08/22 00:42:58;;;;;;;;;;;;;;;18.63;84.51;102005.63;5009988;28;20199;-59
2023/08/22 00:45:23;;;;;;;;;;;;;;;18.60;84.41;102001.19;5023967;28;19902;-59
2023/08/22 00:47:49;;;;;;;;;;;;;;;18.62;84.64;101994.16;5025241;28;19928;-59
2023/08/22 00:50:14;;;;;;;;;;;;;;;18.64;84.74;101994.16;5026020;28;20100;-59
2023/08/22 00:52:40;;;;;;;;;;;;;;;18.63;84.79;101995.06;5025015;28;19916;-59
2023/08/22 00:55:06;;;;;;;;;;;;;;;18.68;84.23;101993.31;5023329;28;19997;-59
2023/08/22 00:57:32;;;;;;;;;;;;;;;18.74;83.68;101988.09;5030765;28;19913;-59
2023/08/22 00:59:57;;;;;;;;;;;;;;;18.75;82.97;101984.59;5025888;28;19948;-59
2023/08/22 01:02:22;;;;;;;;;;;;;;;18.71;82.82;101982.78;5024066;28;20143;-59
2023/08/22 01:04:48;;;;;;;;;;;;;;;18.66;82.43;101979.25;5025478;28;19905;-59
2023/08/22 01:07:30;;;;;;;;;;;;;;;18.53;82.80;101989.69;5027517;28;19935;-59
2023/08/22 01:10:02;;;;;;;;;;;;;;;18.45;84.23;101982.56;5027704;28;20136;-59
2023/08/22 01:12:45;;;;;;;;;;;;;;;18.46;84.75;101981.72;5021201;28;19928;-59
2023/08/22 01:15:20;;;;;;;;;;;;;;;18.49;85.07;101981.72;5022906;28;19905;-59
2023/08/22 01:17:46;;;;;;;;;;;;;;;18.48;84.92;101991.41;5023135;28;19912;-59
2023/08/22 01:20:12;;;;;;;;;;;;;;;18.40;85.25;101986.03;5019549;28;19914;-59
2023/08/22 01:22:38;;;;;;;;;;;;;;;18.36;85.48;101986.00;5024483;28;19909;-59
2023/08/22 01:25:04;;;;;;;;;;;;;;;18.31;84.93;101990.38;5032306;28;19913;-59
2023/08/22 01:27:31;;;;;;;;;;;;;;;18.18;85.56;101990.22;5018188;28;20153;-59
2023/08/22 01:30:01;;;;;;;;;;;;;;;18.15;85.95;101984.94;5019355;28;20095;-59
2023/08/22 01:32:27;;;;;;;;;;;;;;;18.20;85.30;101972.66;5018746;28;19960;-59
2023/08/22 01:34:56;;;;;;;;;;;;;;;18.25;85.38;101970.97;5019248;28;20047;-59
2023/08/22 01:37:23;;;;;;;;;;;;;;;18.32;85.32;101968.38;5012730;28;19902;-59
2023/08/22 01:39:49;;;;;;;;;;;;;;;18.35;85.75;101964.03;5021786;28;20158;-59
2023/08/22 01:42:14;;;;;;;;;;;;;;;18.37;85.53;101974.59;5023624;28;19914;-59
2023/08/22 01:44:39;;;;;;;;;;;;;;;18.35;85.44;101966.66;5014258;28;19944;-59
2023/08/22 01:47:05;;;;;;;;;;;;;;;18.34;85.50;101969.28;5008717;28;19940;-59
2023/08/22 01:49:30;;;;;;;;;;;;;;;18.35;85.95;101971.94;5014517;28;19990;-59
2023/08/22 01:51:58;;;;;;;;;;;;;;;18.33;86.09;101972.78;5016138;28;20075;-59
2023/08/22 01:54:23;;;;;;;;;;;;;;;18.31;85.89;101972.78;5023811;28;19909;-59
2023/08/22 01:56:48;;;;;;;;;;;;;;;18.34;86.08;101972.78;5018167;28;19971;-59
2023/08/22 01:59:14;;;;;;;;;;;;;;;18.36;85.91;101973.69;5028911;28;19908;-59
2023/08/22 02:01:39;;;;;;;;;;;;;;;18.38;85.65;101968.44;5014754;28;19914;-59
2023/08/22 02:04:04;;;;;;;;;;;;;;;18.40;86.15;101961.41;5023724;28;20055;-59
2023/08/22 02:06:31;;;;;;;;;;;;;;;18.38;85.76;101963.16;5024375;28;19905;-59
2023/08/22 02:08:56;;;;;;;;;;;;;;;18.38;85.12;101963.16;5025443;28;19908;-59
2023/08/22 02:11:21;;;;;;;;;;;;;;;18.33;85.07;101965.75;5024534;28;19902;-59
2023/08/22 02:13:46;;;;;;;;;;;;;;;18.30;85.30;101964.84;5024397;28;19909;-59
2023/08/22 02:16:12;;;;;;;;;;;;;;;18.17;84.60;101964.72;5024674;28;19905;-59
2023/08/22 02:18:37;;;;;;;;;;;;;;;17.99;85.32;101961.91;5024237;28;19902;-59
2023/08/22 02:21:02;;;;;;;;;;;;;;;17.86;85.53;101948.53;5023496;28;19955;-59
2023/08/22 02:23:27;;;;;;;;;;;;;;;17.71;86.53;101953.63;5024408;28;20147;-59
2023/08/22 02:25:53;;;;;;;;;;;;;;;17.58;88.81;101955.22;5025033;28;20087;-59
2023/08/22 02:28:18;;;;;;;;;;;;;;;17.55;88.56;101948.19;5018680;28;19912;-59
2023/08/22 02:30:43;;;;;;;;;;;;;;;17.59;89.07;101941.19;5022651;28;19912;-59
2023/08/22 02:33:08;;;;;;;;;;;;;;;17.62;89.27;101948.25;5012046;28;20190;-59
2023/08/22 02:35:34;;;;;;;;;;;;;;;17.68;89.00;101943.94;5017222;28;19906;-59
2023/08/22 02:37:59;;;;;;;;;;;;;;;17.72;87.58;101942.22;5015769;28;19913;-59
2023/08/22 02:40:24;;;;;;;;;;;;;;;17.75;89.04;101938.75;5019522;28;20154;-59
2023/08/22 02:42:49;;;;;;;;;;;;;;;17.80;88.86;101942.28;5017702;28;19914;-59
2023/08/22 02:45:15;;;;;;;;;;;;;;;17.85;88.71;101941.47;5013663;28;19928;-59
2023/08/22 02:47:40;;;;;;;;;;;;;;;17.88;88.71;101943.28;5012682;28;19906;-59
2023/08/22 02:50:06;;;;;;;;;;;;;;;17.90;87.87;101949.47;5021947;28;19913;-59
2023/08/22 02:52:31;;;;;;;;;;;;;;;17.93;88.57;101943.34;5017671;28;19928;-59
2023/08/22 02:54:57;;;;;;;;;;;;;;;17.96;88.88;101949.56;5022490;28;19913;-59
2023/08/22 02:57:22;;;;;;;;;;;;;;;17.96;88.88;101939.00;5027754;28;20147;-59
2023/08/22 02:59:47;;;;;;;;;;;;;;;17.93;88.95;101948.63;5016619;28;19912;-59
2023/08/22 03:02:13;;;;;;;;;;;;;;;17.89;89.00;101943.28;5010034;28;19906;-59
2023/08/22 03:04:38;;;;;;;;;;;;;;;17.87;89.20;101952.94;5018725;28;19921;-59
2023/08/22 03:07:04;;;;;;;;;;;;;;;17.87;89.47;101942.41;5014960;28;19912;-59
2023/08/22 03:09:30;;;;;;;;;;;;;;;17.86;89.17;101947.66;5018274;28;19933;-59
2023/08/22 03:11:55;;;;;;;;;;;;;;;17.84;89.07;101952.91;5026765;28;19908;-59
2023/08/22 03:14:20;;;;;;;;;;;;;;;17.83;89.03;101955.50;5020114;28;19916;-59
2023/08/22 03:16:46;;;;;;;;;;;;;;;17.81;89.21;101944.94;5016980;28;19905;-59
2023/08/22 03:19:11;;;;;;;;;;;;;;;17.82;88.76;101946.72;5021684;28;19940;-59
2023/08/22 03:21:36;;;;;;;;;;;;;;;17.82;89.04;101949.38;5022737;28;19965;-59
2023/08/22 03:24:01;;;;;;;;;;;;;;;17.83;88.78;101948.50;5022715;28;19917;-60
2023/08/22 03:26:27;;;;;;;;;;;;;;;17.82;88.52;101938.81;5015906;28;20094;-59
2023/08/22 03:28:52;;;;;;;;;;;;;;;17.84;88.51;101942.38;5016369;28;19905;-59
2023/08/22 03:31:17;;;;;;;;;;;;;;;17.86;88.18;101938.00;5023341;28;19905;-59
2023/08/22 03:33:42;;;;;;;;;;;;;;;17.86;88.42;101930.09;5014492;28;20155;-59
2023/08/22 03:36:08;;;;;;;;;;;;;;;17.84;88.38;101949.38;5015479;28;19901;-59
2023/08/22 03:38:33;;;;;;;;;;;;;;;17.82;88.62;101949.38;5023353;28;19906;-59
2023/08/22 03:40:58;;;;;;;;;;;;;;;17.79;88.55;101940.56;5022406;28;20055;-59
2023/08/22 03:43:24;;;;;;;;;;;;;;;17.79;88.35;101930.88;5020337;28;20089;-59
2023/08/22 03:45:49;;;;;;;;;;;;;;;17.76;88.32;101937.88;5012002;28;19912;-59
2023/08/22 03:48:14;;;;;;;;;;;;;;;17.68;88.48;101936.03;5024643;28;19906;-59
2023/08/22 03:50:40;;;;;;;;;;;;;;;17.61;88.66;101949.09;5011986;28;19906;-59
2023/08/22 03:53:05;;;;;;;;;;;;;;;17.57;88.76;101940.28;5023452;28;19929;-59
2023/08/22 03:55:33;;;;;;;;;;;;;;;17.55;89.22;101942.00;5011182;28;20054;-59
2023/08/22 03:57:58;;;;;;;;;;;;;;;17.51;88.62;101938.47;5023722;28;20140;-59
2023/08/22 04:00:27;;;;;;;;;;;;;;;17.44;88.91;101928.72;5026868;28;19969;-59
2023/08/22 04:02:56;;;;;;;;;;;;;;;17.42;89.10;101935.69;5019641;28;19972;-59
2023/08/22 04:05:25;;;;;;;;;;;;;;;17.42;89.22;101940.97;5017629;28;20180;-59
2023/08/22 04:07:50;;;;;;;;;;;;;;;17.41;89.15;101938.31;5020158;28;19905;-59
2023/08/22 04:10:18;;;;;;;;;;;;;;;17.37;88.92;101937.41;5021126;28;19921;-59
2023/08/22 04:12:44;;;;;;;;;;;;;;;17.36;88.79;101940.91;5018475;28;19928;-59
2023/08/22 04:15:09;;;;;;;;;;;;;;;17.35;89.15;101940.03;5024280;28;19952;-59
2023/08/22 04:17:35;;;;;;;;;;;;;;;17.34;88.88;101932.97;5016195;28;19905;-59
2023/08/22 04:20:01;;;;;;;;;;;;;;;17.35;88.98;101926.84;5025906;28;20081;-59
2023/08/22 04:22:26;;;;;;;;;;;;;;;17.35;88.75;101929.47;5020421;28;20048;-59
2023/08/22 04:24:51;;;;;;;;;;;;;;;17.33;88.33;101931.19;5021332;28;19963;-59
2023/08/22 04:27:17;;;;;;;;;;;;;;;17.21;87.92;101924.03;5012737;28;19906;-59
2023/08/22 04:29:43;;;;;;;;;;;;;;;17.10;89.14;101924.75;5012353;28;20143;-59
2023/08/22 04:32:08;;;;;;;;;;;;;;;17.06;89.68;101922.94;5026659;28;19909;-59
2023/08/22 04:34:33;;;;;;;;;;;;;;;17.04;89.55;101923.78;5028649;28;19906;-59
2023/08/22 04:36:58;;;;;;;;;;;;;;;17.06;89.75;101929.09;5025253;28;20122;-59
2023/08/22 04:39:23;;;;;;;;;;;;;;;17.08;89.67;101934.38;5024243;28;20154;-59
2023/08/22 04:41:50;;;;;;;;;;;;;;;17.06;89.76;101930.81;5027016;28;19941;-59
2023/08/22 04:44:16;;;;;;;;;;;;;;;17.06;89.55;101931.72;5026173;28;19909;-59
2023/08/22 04:46:41;;;;;;;;;;;;;;;17.07;89.69;101928.22;5024920;28;19909;-59
2023/08/22 04:49:06;;;;;;;;;;;;;;;17.07;89.95;101930.84;5026115;28;19981;-59
2023/08/22 04:51:31;;;;;;;;;;;;;;;17.03;90.07;101929.03;5026299;28;19897;-59
2023/08/22 04:53:56;;;;;;;;;;;;;;;17.00;89.64;101936.88;5023804;28;19905;-59
2023/08/22 04:56:22;;;;;;;;;;;;;;;16.95;90.06;101931.56;5033094;28;19904;-59
2023/08/22 04:58:50;;;;;;;;;;;;;;;16.92;89.94;101934.16;5032362;28;19931;-59
2023/08/22 05:01:16;;;;;;;;;;;;;;;16.90;89.79;101934.97;5026966;28;20090;-59
2023/08/22 05:03:41;;;;;;;;;;;;;;;16.83;89.93;101932.22;5026939;28;20135;-59
2023/08/22 05:06:07;;;;;;;;;;;;;;;16.82;90.12;101942.75;5024304;28;19981;-59
2023/08/22 05:08:32;;;;;;;;;;;;;;;16.81;89.97;101936.56;5018042;28;20055;-59
2023/08/22 05:10:57;;;;;;;;;;;;;;;16.83;90.02;101940.13;5024664;28;20171;-59
2023/08/22 05:13:22;;;;;;;;;;;;;;;16.85;89.21;101938.38;5028928;28;19902;-59
2023/08/22 05:15:47;;;;;;;;;;;;;;;16.80;89.92;101940.09;5016764;28;19960;-59
2023/08/22 05:18:13;;;;;;;;;;;;;;;16.77;90.21;101936.50;5015997;28;20296;-59
2023/08/22 05:20:41;;;;;;;;;;;;;;;16.78;90.53;101940.91;5013967;28;19984;-59
2023/08/22 05:23:06;;;;;;;;;;;;;;;16.82;90.48;101940.97;5012496;28;19928;-59
2023/08/22 05:25:31;;;;;;;;;;;;;;;16.86;90.12;101936.66;5013918;28;19980;-59
2023/08/22 05:27:56;;;;;;;;;;;;;;;16.88;90.62;101936.72;5016162;28;19920;-59
2023/08/22 05:30:22;;;;;;;;;;;;;;;16.88;90.36;101937.59;5013788;28;20178;-59
2023/08/22 05:32:47;;;;;;;;;;;;;;;16.90;91.49;101934.97;5012925;28;20131;-59
2023/08/22 05:35:12;;;;;;;;;;;;;;;16.94;91.51;101937.69;5011366;28;19956;-59
2023/08/22 05:37:37;;;;;;;;;;;;;;;16.95;91.63;101930.69;5018281;28;19980;-59
2023/08/22 05:40:03;;;;;;;;;;;;;;;16.96;91.62;101937.69;5010249;28;19928;-59
2023/08/22 05:42:28;;;;;;;;;;;;;;;16.96;91.58;101932.44;5018282;28;19925;-59
2023/08/22 05:44:53;;;;;;;;;;;;;;;16.93;91.84;101920.13;5012944;28;19906;-59
2023/08/22 05:47:18;;;;;;;;;;;;;;;16.91;91.62;101923.59;5014544;28;19940;-59
2023/08/22 05:49:44;;;;;;;;;;;;;;;16.89;91.98;101926.22;5013362;28;19913;-59
2023/08/22 05:52:09;;;;;;;;;;;;;;;16.90;91.93;101934.97;5020577;28;19940;-59
2023/08/22 05:54:34;;;;;;;;;;;;;;;16.90;92.24;101946.41;5020163;28;19905;-59
2023/08/22 05:56:59;;;;;;;;;;;;;;;16.92;92.14;101946.44;5038661;28;20150;-59
2023/08/22 05:59:25;;;;;;;;;;;;;;;16.93;92.20;101949.09;5028495;28;19908;-59
2023/08/22 06:01:50;;;;;;;;;;;;;;;16.97;92.46;101942.13;5023789;28;19905;-59
2023/08/22 06:04:18;;;;;;;;;;;;;;;16.99;92.17;101941.28;5024799;28;19913;-59
2023/08/22 06:06:44;;;;;;;;;;;;;;;17.03;92.68;101950.09;5024161;28;19951;-59
2023/08/22 06:09:09;;;;;;;;;;;;;;;17.06;92.90;101954.53;5024580;28;19909;-59
2023/08/22 06:11:35;;;;;;;;;;;;;;;17.12;93.08;101955.50;5024963;28;19977;-59
2023/08/22 06:14:00;;;;;;;;;;;;;;;17.17;92.54;101955.56;5025418;28;20012;-59
2023/08/22 06:16:25;;;;;;;;;;;;;;;17.19;92.52;101954.72;5022814;28;19905;-59
2023/08/22 06:18:50;;;;;;;;;;;;;;;17.20;92.37;101961.75;5019687;28;19964;-59
2023/08/22 06:21:15;;;;;;;;;;;;;;;17.22;93.01;101956.53;5024405;28;19897;-59
2023/08/22 06:23:41;;;;;;;;;;;;;;;17.25;94.27;101958.31;5024344;28;19910;-59
2023/08/22 06:26:09;;;;;;;;;;;;;;;17.29;93.69;101965.38;5022623;28;20817;-60
2023/08/22 06:28:34;;;;;;;;;;;;;;;17.35;94.69;101960.19;5015753;28;20146;-60
2023/08/22 06:31:00;;;;;;;;;;;;;;;17.42;93.63;101964.69;5019648;28;19906;-60
2023/08/22 06:33:26;;;;;;;;;;;;;;;17.47;93.74;101956.88;5023529;28;19947;-59
2023/08/22 06:35:51;;;;;;;;;;;;;;;17.50;93.35;101959.53;5021968;28;19906;-59
2023/08/22 06:38:16;;;;;;;;;;;;;;;17.54;94.58;101966.63;5037023;28;19928;-60
2023/08/22 06:40:41;;;;;;;;;;;;;;;17.59;94.08;101959.63;5018729;28;20210;-59
2023/08/22 06:43:06;;;;;;;;;;;;;;;17.64;94.92;101967.59;5024279;28;19910;-59
2023/08/22 06:45:31;;;;;;;;;;;;;;;17.69;93.76;101961.50;5020972;28;19956;-60
2023/08/22 06:47:57;;;;;;;;;;;;;;;17.79;94.29;101962.50;5018653;28;20106;-60
2023/08/22 06:50:22;;;;;;;;;;;;;;;17.86;92.02;101977.53;5024310;28;19915;-60
2023/08/22 06:52:47;;;;;;;;;;;;;;;17.95;93.21;101976.78;5020325;28;19920;-60
2023/08/22 06:55:12;;;;;;;;;;;;;;;18.04;93.21;101986.56;5024020;28;19940;-60
2023/08/22 06:57:38;;;;;;;;;;;;;;;18.13;92.48;101986.66;5013436;28;19905;-59
2023/08/22 07:00:16;;;;;;;;;;;;;;;18.20;92.46;101992.88;5023265;28;20094;-59
2023/08/22 07:02:42;;;;;;;;;;;;;;;18.29;92.64;101990.31;5013619;28;19961;-59
2023/08/22 07:05:11;;;;;;;;;;;;;;;18.41;92.95;101990.47;5023356;28;19901;-59
2023/08/22 07:07:37;;;;;;;;;;;;;;;18.55;92.48;101990.59;5019564;28;19984;-59
2023/08/22 07:10:04;;;;;;;;;;;;;;;18.69;93.00;101985.41;5028775;28;20060;-60
2023/08/22 07:12:29;;;;;;;;;;;;;;;18.79;91.91;101986.38;5023090;28;19918;-59
2023/08/22 07:14:54;;;;;;;;;;;;;;;18.90;91.60;101995.31;5027006;28;19929;-59
2023/08/22 07:17:19;;;;;;;;;;;;;;;19.03;91.44;102000.66;5028352;28;20063;-62
2023/08/22 07:19:45;;;;;;;;;;;;;;;19.12;90.45;102000.75;5028005;28;19912;-62
2023/08/22 07:22:10;;;;;;;;;;;;;;;19.20;90.38;101999.03;5025943;28;19910;-62
2023/08/22 07:24:35;;;;;;;;;;;;;;;19.27;89.43;101995.53;5034610;28;20011;-61
2023/08/22 07:27:00;;;;;;;;;;;;;;;19.36;88.30;101993.84;5032133;28;19948;-62
2023/08/22 07:29:25;;;;;;;;;;;;;;;19.46;85.40;101995.66;5031824;28;19919;-61
2023/08/22 07:31:51;;;;;;;;;;;;;;;19.53;83.27;101994.81;5028170;28;19949;-62
2023/08/22 07:34:16;;;;;;;;;;;;;;;19.63;83.92;101999.25;5030692;28;19901;-62
2023/08/22 07:36:41;;;;;;;;;;;;;;;19.68;83.86;101993.97;5025450;28;20110;-61
2023/08/22 07:39:06;;;;;;;;;;;;;;;19.81;83.33;101987.00;5027478;28;19905;-62
2023/08/22 07:41:32;;;;;;;;;;;;;;;19.96;82.93;101997.66;5029552;28;20139;-61
2023/08/22 07:43:57;;;;;;;;;;;;;;;20.14;81.48;101998.59;5029095;28;20062;-62
2023/08/22 07:46:22;;;;;;;;;;;;;;;20.25;79.89;101999.50;5030895;28;19924;-62
2023/08/22 07:48:47;;;;;;;;;;;;;;;20.32;82.35;102001.28;5022974;28;19917;-62
2023/08/22 07:51:13;;;;;;;;;;;;;;;20.40;81.67;101993.31;5029799;28;19936;-62
2023/08/22 07:53:38;;;;;;;;;;;;;;;20.54;81.27;101990.72;5027080;28;19905;-62
2023/08/22 07:56:03;;;;;;;;;;;;;;;20.64;79.26;101999.53;5025239;28;19901;-62
2023/08/22 07:58:29;;;;;;;;;;;;;;;20.75;79.61;101988.97;5029553;28;20144;-61
2023/08/22 08:00:54;;;;;;;;;;;;;;;20.81;78.64;101995.16;5020705;28;19959;-62
2023/08/22 08:03:20;;;;;;;;;;;;;;;20.82;79.50;101991.59;5018893;28;19909;-62
2023/08/22 08:05:46;;;;;;;;;;;;;;;20.84;79.45;101999.56;5023160;28;20162;-61
2023/08/22 08:08:11;;;;;;;;;;;;;;;20.87;79.85;101998.66;5025645;28;19985;-62
2023/08/22 08:10:36;;;;;;;;;;;;;;;20.89;80.14;101995.16;5023119;28;20091;-62
2023/08/22 08:13:02;;;;;;;;;;;;;;;20.97;78.06;101998.69;5020917;28;19905;-62
2023/08/22 08:15:27;;;;;;;;;;;;;;;21.01;77.42;101997.78;5022782;28;20145;-62
2023/08/22 08:17:52;;;;;;;;;;;;;;;21.06;76.78;102005.72;5025925;28;19968;-62
2023/08/22 08:20:18;;;;;;;;;;;;;;;21.02;78.24;102006.63;5026393;28;19929;-62
2023/08/22 08:22:43;;;;;;;;;;;;;;;21.05;79.01;102008.38;5016427;28;19910;-61
2023/08/22 08:25:08;;;;;;;;;;;;;;;21.07;78.76;102006.59;5023748;28;20190;-62
2023/08/22 08:27:34;;;;;;;;;;;;;;;21.11;78.66;102014.53;5024809;28;20036;-62
2023/08/22 08:29:59;;;;;;;;;;;;;;;21.14;78.82;102008.34;5027567;28;19909;-62
2023/08/22 08:32:25;;;;;;;;;;;;;;;21.17;79.78;102011.00;5032242;28;19902;-62
2023/08/22 08:34:50;;;;;;;;;;;;;;;21.22;79.01;102017.19;5025693;28;19905;-62
2023/08/22 08:37:15;;;;;;;;;;;;;;;21.25;78.84;102011.88;5029456;28;20139;-62
2023/08/22 08:39:41;;;;;;;;;;;;;;;21.31;78.90;102010.97;5025646;28;19956;-62
2023/08/22 08:42:13;;;;;;;;;;;;;;;21.35;78.39;102005.66;5012531;28;20048;-62
2023/08/22 08:44:38;;;;;;;;;;;;;;;21.41;78.32;102003.91;5022324;28;20152;-62
2023/08/22 08:47:05;;;;;;;;;;;;;;;21.47;78.51;102001.22;5015766;28;20139;-62
2023/08/22 08:49:32;;;;;;;;;;;;;;;21.53;78.78;102006.53;5024833;28;19910;-62
2023/08/22 08:51:58;;;;;;;;;;;;;;;21.59;79.05;102000.31;5026267;28;19902;-62
2023/08/22 08:54:24;;;;;;;;;;;;;;;21.67;78.44;101999.41;5026165;28;19913;-62
2023/08/22 08:56:49;;;;;;;;;;;;;;;21.73;78.24;102001.16;5024553;28;19902;-62
2023/08/22 08:59:14;;;;;;;;;;;;;;;21.80;77.59;102013.50;5025945;28;19976;-62
2023/08/22 09:01:42;;;;;;;;;;;;;;;21.84;77.26;102009.94;5024487;28;19902;-62
2023/08/22 09:04:07;;;;;;;;;;;;;;;21.90;76.97;102009.03;5025833;28;19905;-62
2023/08/22 09:06:32;;;;;;;;;;;;;;;21.96;75.53;102016.97;5025868;28;19906;-62
2023/08/22 09:09:03;;;;;;;;;;;;;;;21.91;75.17;102009.91;5024808;28;19940;-63
2023/08/22 09:11:29;;;;;;;;;;;;;;;21.87;75.02;102006.41;5026243;28;19913;-63
2023/08/22 09:13:55;;;;;;;;;;;;;;;21.87;74.56;102009.06;5025789;28;19901;-63
2023/08/22 09:16:22;;;;;;;;;;;;;;;21.79;75.33;102009.06;5025100;28;19984;-63
2023/08/22 09:18:47;;;;;;;;;;;;;;;21.79;74.64;102018.81;5025785;28;19947;-63
2023/08/22 09:21:14;;;;;;;;;;;;;;;21.70;76.53;102020.59;5025550;28;19902;-62
2023/08/22 09:23:40;;;;;;;;;;;;;;;21.79;75.80;102009.06;5024532;28;19976;-62
2023/08/22 09:26:06;;;;;;;;;;;;;;;21.84;76.09;102017.91;5023100;28;19906;-62
2023/08/22 09:28:31;;;;;;;;;;;;;;;21.95;76.99;102011.66;5024452;28;20146;-62
2023/08/22 09:30:59;;;;;;;;;;;;;;;21.95;77.19;102004.56;5025231;28;19910;-62
2023/08/22 09:33:25;;;;;;;;;;;;;;;21.98;77.34;102009.00;5025074;28;19901;-63
2023/08/22 09:35:54;;;;;;;;;;;;;;;21.96;76.84;102014.31;5025214;28;19912;-63
2023/08/22 09:38:20;;;;;;;;;;;;;;;22.05;76.68;102013.38;5024773;28;19968;-63
2023/08/22 09:40:52;;;;;;;;;;;;;;;22.23;77.29;102013.28;5017892;28;19914;-63
2023/08/22 09:43:19;;;;;;;;;;;;;;;22.52;77.47;102013.97;5025329;28;20017;-63
2023/08/22 09:45:45;;;;;;;;;;;;;;;22.65;75.98;102015.66;5025328;28;19969;-63
2023/08/22 09:48:18;;;;;;;;;;;;;;;22.77;76.51;102020.00;5025187;28;19908;-63
2023/08/22 09:50:45;;;;;;;;;;;;;;;22.84;76.14;102013.72;5023614;28;19945;-63
2023/08/22 09:53:11;;;;;;;;;;;;;;;22.90;76.26;102012.78;5024612;28;19906;-63
2023/08/22 09:55:37;;;;;;;;;;;;;;;23.01;74.67;102020.66;5028662;28;20139;-63
2023/08/22 09:58:04;;;;;;;;;;;;;;;22.96;73.04;102014.53;5034081;28;19913;-63
2023/08/22 10:00:30;;;;;;;;;;;;;;;22.78;74.95;102023.53;5023463;28;19902;-63
2023/08/22 10:02:56;;;;;;;;;;;;;;;22.81;75.40;102039.44;5020892;28;19913;-63
2023/08/22 10:05:22;;;;;;;;;;;;;;;22.68;74.78;102028.91;5023496;28;20111;-63
2023/08/22 10:07:47;;;;;;;;;;;;;;;22.68;73.88;102012.97;5022622;28;19944;-63
2023/08/22 10:10:13;;;;;;;;;;;;;;;22.95;71.85;102015.41;5024803;28;19905;-63
2023/08/22 10:12:39;;;;;;;;;;;;;;;22.92;73.00;102016.31;5024721;28;19902;-63
2023/08/22 10:15:06;;;;;;;;;;;;;;;23.00;72.37;102019.78;5024112;28;19964;-63
2023/08/22 10:17:31;;;;;;;;;;;;;;;23.10;73.04;102017.91;5023658;28;19944;-63
2023/08/22 10:20:04;;;;;;;;;;;;;;;23.17;72.74;102011.66;5023651;28;19902;-63
2023/08/22 10:22:30;;;;;;;;;;;;;;;23.27;72.24;102007.13;5024566;28;19916;-63
2023/08/22 10:25:01;;;;;;;;;;;;;;;23.55;71.67;102012.13;5024576;28;19929;-63
2023/08/22 10:27:27;;;;;;;;;;;;;;;23.81;71.01;102014.50;5023456;28;19965;-63
2023/08/22 10:30:12;;;;;;;;;;;;;;;23.97;68.41;102015.19;5021190;28;19933;-63
2023/08/22 10:32:37;;;;;;;;;;;;;;;24.06;66.71;102008.88;5024473;28;20158;-63
2023/08/22 10:35:03;;;;;;;;;;;;;;;23.88;67.86;102010.88;5024450;28;19960;-63
2023/08/22 10:37:29;;;;;;;;;;;;;;;23.85;68.17;102010.00;5024354;28;20135;-63
2023/08/22 10:39:57;;;;;;;;;;;;;;;23.82;68.88;102010.03;5022074;28;19917;-63
2023/08/22 10:42:23;;;;;;;;;;;;;;;24.02;66.65;102008.00;5024015;28;19913;-63
2023/08/22 10:44:48;;;;;;;;;;;;;;;24.15;63.37;102007.84;5024362;28;20147;-63
2023/08/22 10:47:17;;;;;;;;;;;;;;;24.10;63.95;101998.13;5024188;28;19902;-63
2023/08/22 10:49:43;;;;;;;;;;;;;;;24.16;64.30;102009.59;5026044;28;19905;-63
2023/08/22 10:52:11;;;;;;;;;;;;;;;24.25;63.08;102004.16;5026168;28;20058;-63
2023/08/22 10:54:56;;;;;;;;;;;;;;;24.19;63.15;102010.44;5026817;28;19905;-63
2023/08/22 10:57:21;;;;;;;;;;;;;;;24.35;62.32;102003.09;5028120;28;19909;-63
2023/08/22 10:59:58;;;;;;;;;;;;;;;24.33;63.30;101996.88;5028157;28;19901;-63
2023/08/22 11:02:30;;;;;;;;;;;;;;;24.62;61.47;101995.56;5028222;28;20086;-63
2023/08/22 11:05:00;;;;;;;;;;;;;;;24.77;57.70;101995.31;5026367;28;19913;-63
2023/08/22 11:07:26;;;;;;;;;;;;;;;24.72;57.14;101997.19;5027732;28;19912;-63
2023/08/22 11:09:53;;;;;;;;;;;;;;;24.67;55.54;101990.19;5027067;28;19906;-63
2023/08/22 11:12:18;;;;;;;;;;;;;;;24.74;55.43;101991.84;5027517;28;19969;-63
2023/08/22 11:14:48;;;;;;;;;;;;;;;24.73;57.31;101996.28;5028160;28;19901;-63
2023/08/22 11:17:16;;;;;;;;;;;;;;;24.77;52.71;102013.97;5027861;28;19901;-63
2023/08/22 11:19:42;;;;;;;;;;;;;;;24.65;55.42;102008.84;5026382;28;19928;-63
2023/08/22 11:22:07;;;;;;;;;;;;;;;24.65;54.04;102008.84;5027729;28;19944;-63
2023/08/22 11:24:32;;;;;;;;;;;;;;;24.57;54.96;102010.75;5024841;28;19921;-61
2023/08/22 11:27:02;;;;;;;;;;;;;;;24.57;53.73;102016.06;5027716;28;19902;-60
2023/08/22 11:29:27;;;;;;;;;;;;;;;24.48;54.38;102007.31;5026769;28;19980;-60
2023/08/22 11:31:52;;;;;;;;;;;;;;;24.43;53.68;102011.84;5027175;28;19906;-60
2023/08/22 11:34:20;;;;;;;;;;;;;;;24.25;55.33;102010.34;5027576;28;19944;-60
2023/08/22 11:36:45;;;;;;;;;;;;;;;24.18;54.01;102014.00;5027095;28;19963;-60
2023/08/22 11:39:11;;;;;;;;;;;;;;;24.02;54.61;102013.34;5025138;28;20086;-63
2023/08/22 11:41:36;;;;;;;;;;;;;;;23.91;56.13;102020.59;5027674;28;19924;-63
2023/08/22 11:44:01;;;;;;;;;;;;;;;23.92;55.17;102017.91;5027499;28;19910;-63
2023/08/22 11:46:27;;;;;;;;;;;;;;;23.81;56.90;102022.47;5027245;28;19902;-63
2023/08/22 11:48:52;;;;;;;;;;;;;;;23.81;58.02;102018.91;5025627;28;19929;-63
2023/08/22 11:51:19;;;;;;;;;;;;;;;23.81;57.99;102022.47;5025557;28;19902;-63
2023/08/22 11:53:45;;;;;;;;;;;;;;;23.78;58.53;102026.03;5027417;28;19906;-63
2023/08/22 11:56:10;;;;;;;;;;;;;;;23.70;59.18;102011.06;5025357;28;19909;-63
2023/08/22 11:58:42;;;;;;;;;;;;;;;23.62;59.04;102016.47;5026611;28;19913;-63
2023/08/22 12:01:08;;;;;;;;;;;;;;;23.54;58.86;102021.91;5026984;28;19948;-63
2023/08/22 12:03:43;;;;;;;;;;;;;;;23.50;59.45;102006.88;5026041;28;19909;-63
2023/08/22 12:06:12;;;;;;;;;;;;;;;23.51;58.89;102013.09;5026492;28;19913;-62
2023/08/22 12:08:37;;;;;;;;;;;;;;;23.48;59.37;102011.34;5027187;28;19902;-63
2023/08/22 12:11:03;;;;;;;;;;;;;;;23.42;60.17;102020.25;5026535;28;19951;-63
2023/08/22 12:13:29;;;;;;;;;;;;;;;23.46;59.62;102025.53;5026792;28;20135;-63
2023/08/22 12:15:54;;;;;;;;;;;;;;;23.45;60.27;102019.34;5027016;28;20040;-62
2023/08/22 12:18:26;;;;;;;;;;;;;;;23.46;61.01;102020.22;5026886;28;20174;-62
2023/08/22 12:20:52;;;;;;;;;;;;;;;23.49;61.07;102022.84;5025152;28;19905;-63
2023/08/22 12:23:17;;;;;;;;;;;;;;;23.49;61.64;102023.75;5026527;28;20159;-62
2023/08/22 12:25:43;;;;;;;;;;;;;;;23.55;61.49;102025.44;5025004;28;19929;-63
2023/08/22 12:28:09;;;;;;;;;;;;;;;23.59;62.03;102029.81;5026266;28;19905;-63
2023/08/22 12:30:35;;;;;;;;;;;;;;;23.64;61.75;102016.44;5026230;28;19913;-62